Time;durP1;ratioP1;P1;durP2;ratioP2;P2;SDS_P1;SDS_P2;PMS_P1;PMS_P2;Temp;Humidity;BMP_temperature;BMP_pressure;BME280_temperature;BME280_humidity;BME280_pressure;Samples;Min_cycle;Max_cycle;Signal;HPM_P1;HPM_P2
2022/03/31 00:00:18;;;;;;;0.52;0.00;;;3.70;99.90;;;;;;5097170;28;20401;-75
2022/03/31 00:02:45;;;;;;;0.43;0.00;;;3.70;99.90;;;;;;5095418;28;20067;-76
2022/03/31 00:05:11;;;;;;;0.50;0.00;;;3.70;99.90;;;;;;5082608;28;20070;-76
2022/03/31 00:07:51;;;;;;;0.52;0.00;;;3.70;99.90;;;;;;5074946;28;20024;-76
2022/03/31 00:10:32;;;;;;;0.38;0.00;;;3.60;99.90;;;;;;5074636;28;20024;-76
2022/03/31 00:13:00;;;;;;;0.32;0.00;;;3.50;99.90;;;;;;5074849;28;20021;-76
2022/03/31 00:15:30;;;;;;;0.10;0.00;;;3.50;99.90;;;;;;5094345;28;20445;-77
2022/03/31 00:17:58;;;;;;;0.00;0.00;;;3.40;99.90;;;;;;5096603;28;20091;-76
2022/03/31 00:23:46;;;;;;;0.63;0.00;;;3.30;99.90;;;;;;5090173;28;20035;-76
2022/03/31 00:26:13;;;;;;;1.27;0.00;;;3.30;99.90;;;;;;5075996;28;20530;-77
2022/03/31 00:28:39;;;;;;;0.10;0.00;;;3.30;99.90;;;;;;5076043;28;20052;-77
2022/03/31 00:31:05;;;;;;;0.00;0.00;;;3.20;99.90;;;;;;5075588;28;20025;-77
2022/03/31 00:33:30;;;;;;;1.40;0.00;;;3.20;99.90;;;;;;5076868;28;20036;-77
2022/03/31 00:35:56;;;;;;;0.20;0.00;;;3.20;99.90;;;;;;5095877;28;20030;-76
2022/03/31 00:38:21;;;;;;;0.10;0.00;;;3.10;99.90;;;;;;5095692;28;20028;-77
2022/03/31 00:40:47;;;;;;;0.20;0.10;;;3.30;99.90;;;;;;5095640;28;20031;-76
2022/03/31 00:43:13;;;;;;;0.60;0.10;;;3.00;99.90;;;;;;5094170;28;20028;-76
2022/03/31 00:45:48;;;;;;;2.75;0.00;;;3.10;99.90;;;;;;5075228;28;20024;-76
2022/03/31 00:48:15;;;;;;;1.88;0.08;;;3.00;99.90;;;;;;5075354;28;20032;-76
2022/03/31 00:50:41;;;;;;;0.10;0.00;;;2.90;99.90;;;;;;5073970;28;20020;-76
2022/03/31 00:53:08;;;;;;;0.08;0.00;;;2.90;99.90;;;;;;5074095;28;20063;-76
2022/03/31 00:55:34;;;;;;;0.60;0.00;;;2.80;99.90;;;;;;5094594;28;20055;-76
2022/03/31 00:58:01;;;;;;;0.05;0.00;;;2.80;99.90;;;;;;5095430;28;20058;-76
2022/03/31 01:00:27;;;;;;;0.25;0.00;;;2.80;99.90;;;;;;5095441;28;20149;-76
2022/03/31 01:02:53;;;;;;;0.20;0.10;;;2.70;99.90;;;;;;5095583;28;20099;-77
2022/03/31 01:05:18;;;;;;;0.20;0.00;;;2.70;99.90;;;;;;5089860;28;20028;-76
2022/03/31 01:07:44;;;;;;;0.98;0.00;;;2.70;99.90;;;;;;5094765;28;20024;-76
2022/03/31 01:10:11;;;;;;;1.50;0.10;;;2.70;99.90;;;;;;5095162;28;20480;-76
2022/03/31 01:12:37;;;;;;;0.13;0.00;;;2.60;99.90;;;;;;5095187;28;20489;-76
2022/03/31 01:15:07;;;;;;;0.60;0.00;;;2.50;99.90;;;;;;5080327;28;20029;-76
2022/03/31 01:17:34;;;;;;;0.85;0.00;;;2.40;99.90;;;;;;5073572;28;20060;-76
2022/03/31 01:20:00;;;;;;;0.15;0.00;;;2.20;99.90;;;;;;5075156;28;20013;-76
2022/03/31 01:22:30;;;;;;;0.68;0.00;;;2.10;99.90;;;;;;5074543;28;20115;-76
2022/03/31 01:24:56;;;;;;;0.95;0.00;;;2.10;99.90;;;;;;5085923;28;20119;-75
2022/03/31 01:27:23;;;;;;;0.57;0.10;;;2.00;99.90;;;;;;5095222;28;20046;-76
2022/03/31 01:29:49;;;;;;;0.15;0.00;;;2.00;99.90;;;;;;5093664;28;20017;-76
2022/03/31 01:32:15;;;;;;;0.10;0.00;;;2.00;99.90;;;;;;5094890;28;20024;-77
2022/03/31 01:34:40;;;;;;;0.00;0.00;;;2.00;99.90;;;;;;5084214;28;20028;-76
2022/03/31 01:37:07;;;;;;;0.00;0.00;;;1.90;99.90;;;;;;5074580;28;20032;-76
2022/03/31 01:39:32;;;;;;;0.10;0.00;;;1.80;99.90;;;;;;5074721;28;20028;-77
2022/03/31 01:41:58;;;;;;;1.15;0.00;;;1.80;99.90;;;;;;5074553;28;20043;-76
2022/03/31 01:44:24;;;;;;;0.17;0.00;;;1.70;99.90;;;;;;5075030;28;20025;-76
2022/03/31 01:46:50;;;;;;;0.10;0.00;;;1.80;99.90;;;;;;5074505;28;20017;-76
2022/03/31 01:49:15;;;;;;;0.00;0.00;;;1.80;99.90;;;;;;5073211;28;20020;-77
2022/03/31 01:51:41;;;;;;;0.63;0.00;;;1.80;99.90;;;;;;5074478;28;20017;-76
2022/03/31 01:54:07;;;;;;;2.28;0.00;;;1.80;99.90;;;;;;5074938;28;20381;-76
2022/03/31 01:56:33;;;;;;;0.00;0.00;;;1.70;99.90;;;;;;5074817;28;20363;-76
2022/03/31 01:58:59;;;;;;;0.10;0.00;;;1.70;99.90;;;;;;5074558;28;20023;-76
2022/03/31 02:01:24;;;;;;;1.65;0.00;;;1.70;99.90;;;;;;5074370;28;20486;-77
2022/03/31 02:03:50;;;;;;;0.63;0.00;;;1.70;99.90;;;;;;5079769;28;20473;-77
2022/03/31 02:06:15;;;;;;;0.55;0.20;;;1.60;99.90;;;;;;5093971;28;20059;-76
2022/03/31 02:08:41;;;;;;;0.63;0.25;;;1.60;99.90;;;;;;5094745;28;20036;-76
2022/03/31 02:11:08;;;;;;;0.10;0.00;;;1.60;99.90;;;;;;5093117;28;20016;-77
2022/03/31 02:13:34;;;;;;;0.10;0.00;;;1.70;99.90;;;;;;5090232;28;20020;-77
2022/03/31 02:16:00;;;;;;;0.30;0.00;;;1.60;99.90;;;;;;5074196;28;20039;-76
2022/03/31 02:18:25;;;;;;;0.63;0.00;;;1.70;99.90;;;;;;5073367;28;20562;-76
2022/03/31 02:20:51;;;;;;;2.22;0.10;;;1.70;99.90;;;;;;5072741;28;20119;-76
2022/03/31 02:23:17;;;;;;;1.10;0.30;;;1.70;99.90;;;;;;5074171;28;20033;-77
2022/03/31 02:25:43;;;;;;;1.10;0.30;;;1.80;99.90;;;;;;5072888;28;20035;-76
2022/03/31 02:28:10;;;;;;;0.30;0.10;;;1.70;99.90;;;;;;5073851;28;20020;-76
2022/03/31 02:30:36;;;;;;;0.93;0.00;;;1.70;99.90;;;;;;5073761;28;20446;-77
2022/03/31 02:33:03;;;;;;;0.52;0.10;;;1.70;99.90;;;;;;5072985;28;20052;-77
2022/03/31 02:35:29;;;;;;;1.77;0.43;;;1.70;99.90;;;;;;5091961;28;20113;-77
2022/03/31 02:37:54;;;;;;;0.45;0.10;;;1.60;99.90;;;;;;5092624;28;20055;-76
2022/03/31 02:40:20;;;;;;;0.10;0.00;;;1.70;99.90;;;;;;5093754;28;20106;-76
2022/03/31 02:42:46;;;;;;;2.08;0.10;;;1.70;99.90;;;;;;5094240;28;20024;-77
2022/03/31 02:45:12;;;;;;;1.48;0.10;;;1.70;99.90;;;;;;5091912;28;20099;-77
2022/03/31 02:47:37;;;;;;;0.35;0.05;;;1.60;99.90;;;;;;5092335;28;20063;-76
2022/03/31 02:50:04;;;;;;;0.47;0.10;;;1.60;99.90;;;;;;5093926;28;20031;-76
2022/03/31 02:55:24;;;;;;;0.95;0.00;;;1.60;99.90;;;;;;5093906;28;20012;-76
2022/03/31 02:55:24;;;;;;;0.95;0.00;;;1.60;99.90;;;;;;5077473;28;20037;-76
2022/03/31 02:57:51;;;;;;;0.40;0.05;;;1.70;99.90;;;;;;5073708;28;20033;-76
2022/03/31 03:00:17;;;;;;;0.17;0.00;;;1.70;99.90;;;;;;5073334;28;20024;-77
2022/03/31 03:02:42;;;;;;;1.05;0.00;;;1.70;99.90;;;;;;5073335;28;20020;-76
2022/03/31 03:05:08;;;;;;;0.63;0.00;;;1.60;99.90;;;;;;5085844;28;20118;-76
2022/03/31 03:07:34;;;;;;;0.45;0.00;;;1.60;99.90;;;;;;5093368;28;20089;-76
2022/03/31 03:09:59;;;;;;;2.63;0.20;;;1.70;99.90;;;;;;5093448;28;20085;-76
2022/03/31 03:12:25;;;;;;;0.45;0.00;;;1.70;99.90;;;;;;5092148;28;20027;-77
2022/03/31 03:14:51;;;;;;;2.25;0.00;;;1.70;99.90;;;;;;5093634;28;20481;-77
2022/03/31 03:17:17;;;;;;;0.70;0.00;;;1.60;99.90;;;;;;5093285;28;20070;-77
2022/03/31 03:19:43;;;;;;;0.10;0.00;;;1.60;99.90;;;;;;5092355;28;20058;-78
2022/03/31 03:22:09;;;;;;;4.95;0.28;;;1.60;99.90;;;;;;5094199;28;20068;-77
2022/03/31 03:24:34;;;;;;;0.10;0.00;;;1.60;99.90;;;;;;5082897;28;20492;-77
2022/03/31 03:27:00;;;;;;;0.40;0.00;;;1.60;99.90;;;;;;5087015;28;20016;-76
2022/03/31 03:29:26;;;;;;;1.48;0.00;;;1.70;99.90;;;;;;5094328;28;20041;-77
2022/03/31 03:31:52;;;;;;;0.50;0.10;;;1.70;99.90;;;;;;5095986;28;20446;-77
2022/03/31 03:34:18;;;;;;;2.28;0.13;;;1.60;99.90;;;;;;5094073;28;20020;-76
2022/03/31 03:36:43;;;;;;;1.63;0.00;;;1.60;99.90;;;;;;5097688;28;20158;-76
2022/03/31 03:39:12;;;;;;;0.68;0.00;;;1.60;99.90;;;;;;5097089;28;20060;-76
2022/03/31 03:41:38;;;;;;;4.68;0.00;;;1.80;99.90;;;;;;5097088;28;20319;-76
2022/03/31 03:44:04;;;;;;;1.45;0.00;;;1.70;99.90;;;;;;5094558;28;20039;-76
2022/03/31 03:46:30;;;;;;;1.42;0.10;;;1.70;99.90;;;;;;5077294;28;20025;-77
2022/03/31 03:48:56;;;;;;;0.30;0.00;;;1.60;99.90;;;;;;5077362;28;20044;-77
2022/03/31 03:51:24;;;;;;;0.63;0.10;;;1.60;99.90;;;;;;5075568;28;20021;-77
2022/03/31 03:53:50;;;;;;;1.03;0.00;;;1.60;99.90;;;;;;5076615;28;20017;-77
2022/03/31 03:56:16;;;;;;;0.10;0.00;;;1.60;99.90;;;;;;5094074;28;20369;-77
2022/03/31 03:58:42;;;;;;;0.30;0.00;;;1.50;99.90;;;;;;5097797;28;20028;-77
2022/03/31 04:01:08;;;;;;;1.02;0.00;;;1.50;99.90;;;;;;5095815;28;20086;-76
2022/03/31 04:03:34;;;;;;;0.10;0.00;;;1.50;99.90;;;;;;5091809;28;20023;-77
2022/03/31 04:06:00;;;;;;;0.30;0.00;;;1.40;99.90;;;;;;5076136;28;20111;-77
2022/03/31 04:08:26;;;;;;;0.52;0.00;;;1.50;99.90;;;;;;5074919;28;20086;-77
2022/03/31 04:10:52;;;;;;;1.08;0.00;;;1.50;99.90;;;;;;5076510;28;20016;-76
2022/03/31 04:13:18;;;;;;;0.55;0.00;;;1.50;99.90;;;;;;5076165;28;20433;-77
2022/03/31 04:15:44;;;;;;;1.02;0.00;;;1.50;99.90;;;;;;5074860;28;20036;-76
2022/03/31 04:18:09;;;;;;;0.13;0.00;;;1.50;99.90;;;;;;5076226;28;20482;-76
2022/03/31 04:20:35;;;;;;;1.65;0.25;;;1.50;99.90;;;;;;5076242;28;20024;-76
2022/03/31 04:23:01;;;;;;;0.20;0.00;;;1.50;99.90;;;;;;5076299;28;20032;-77
2022/03/31 04:25:27;;;;;;;0.20;0.00;;;4.80;99.90;;;;;;5076165;28;20052;-75
2022/03/31 04:27:52;;;;;;;0.10;0.00;;;1.50;99.90;;;;;;5075969;28;20047;-76
2022/03/31 04:30:21;;;;;;;0.35;0.00;;;1.50;99.90;;;;;;5074613;28;20060;-77
2022/03/31 04:32:48;;;;;;;0.10;0.00;;;1.50;99.90;;;;;;5076440;28;20075;-77
2022/03/31 04:35:14;;;;;;;1.75;0.05;;;1.50;99.90;;;;;;5091121;28;20024;-76
2022/03/31 04:37:40;;;;;;;1.33;0.00;;;1.50;99.90;;;;;;5096257;28;20120;-75
2022/03/31 04:40:08;;;;;;;1.98;0.00;;;1.50;99.90;;;;;;5095760;28;20059;-76
2022/03/31 04:42:34;;;;;;;0.45;0.00;;;1.50;99.90;;;;;;5094085;28;20035;-77
2022/03/31 04:45:02;;;;;;;0.55;0.22;;;1.50;99.90;;;;;;5081431;28;20460;-75
2022/03/31 04:47:28;;;;;;;3.75;0.17;;;1.50;99.90;;;;;;5075549;28;20059;-75
2022/03/31 04:49:54;;;;;;;0.73;0.00;;;1.50;99.90;;;;;;5074259;28;20126;-76
2022/03/31 04:52:20;;;;;;;0.80;0.00;;;1.50;99.90;;;;;;5075746;28;20458;-75
2022/03/31 04:54:45;;;;;;;3.13;0.00;;;1.50;99.90;;;;;;5075809;28;20107;-77
2022/03/31 04:57:16;;;;;;;5.55;0.45;;;1.50;99.90;;;;;;5075745;28;20025;-76
2022/03/31 04:59:42;;;;;;;1.20;0.00;;;1.50;99.90;;;;;;5075397;28;20031;-77
2022/03/31 05:02:09;;;;;;;2.15;0.00;;;1.50;99.90;;;;;;5075171;28;20103;-76
2022/03/31 05:04:34;;;;;;;2.65;0.00;;;1.50;99.90;;;;;;5084056;28;20031;-76
2022/03/31 05:07:00;;;;;;;1.85;0.10;;;1.60;99.90;;;;;;5095651;28;20016;-77
2022/03/31 05:09:25;;;;;;;2.22;0.00;;;1.60;99.90;;;;;;5095303;28;20020;-77
2022/03/31 05:11:51;;;;;;;0.52;0.00;;;1.60;99.90;;;;;;5095522;28;20586;-75
2022/03/31 05:14:16;;;;;;;0.65;0.00;;;1.60;99.90;;;;;;5094908;28;20523;-77
2022/03/31 05:16:42;;;;;;;0.68;0.00;;;1.60;99.90;;;;;;5093980;28;20488;-77
2022/03/31 05:19:08;;;;;;;0.57;0.00;;;1.60;99.90;;;;;;5095143;28;20393;-75
2022/03/31 05:21:33;;;;;;;3.63;0.00;;;1.60;99.90;;;;;;5094919;28;20024;-77
2022/03/31 05:23:59;;;;;;;1.95;0.00;;;1.60;99.90;;;;;;5089991;28;20020;-78
2022/03/31 05:26:24;;;;;;;1.70;0.35;;;1.60;99.90;;;;;;5074503;28;20064;-77
2022/03/31 05:28:50;;;;;;;1.50;0.05;;;1.60;99.90;;;;;;5073959;28;20029;-77
2022/03/31 05:31:15;;;;;;;3.70;0.20;;;1.60;99.90;;;;;;5073280;28;20021;-77
2022/03/31 05:33:41;;;;;;;2.17;0.10;;;1.60;99.90;;;;;;5073583;28;20060;-76
2022/03/31 05:36:07;;;;;;;0.47;0.00;;;1.50;99.90;;;;;;5073216;28;20056;-78
2022/03/31 05:38:32;;;;;;;0.22;0.00;;;1.60;99.90;;;;;;5074500;28;20019;-76
2022/03/31 05:40:58;;;;;;;2.17;0.10;;;1.60;99.90;;;;;;5074461;28;20394;-75
2022/03/31 05:43:23;;;;;;;1.20;0.00;;;1.60;99.90;;;;;;5075222;28;20056;-77
2022/03/31 05:45:49;;;;;;;1.38;0.63;;;1.60;99.90;;;;;;5079004;28;20029;-78
2022/03/31 05:48:15;;;;;;;0.50;0.10;;;1.70;99.90;;;;;;5074690;28;20480;-78
2022/03/31 05:50:40;;;;;;;5.50;0.73;;;1.60;99.90;;;;;;5073164;28;20012;-78
2022/03/31 05:53:06;;;;;;;0.85;0.10;;;1.70;99.90;;;;;;5072918;28;20066;-78
2022/03/31 05:55:32;;;;;;;0.82;0.10;;;1.70;99.90;;;;;;5088022;28;20024;-76
2022/03/31 05:57:58;;;;;;;1.30;0.00;;;1.70;99.90;;;;;;5093043;28;20027;-76
2022/03/31 06:00:24;;;;;;;1.42;0.20;;;1.80;99.90;;;;;;5094533;28;20062;-77
2022/03/31 06:02:52;;;;;;;2.38;0.10;;;1.80;99.90;;;;;;5078255;28;20021;-77
2022/03/31 06:05:21;;;;;;;0.98;0.10;;;1.80;99.90;;;;;;5091580;28;20024;-76
2022/03/31 06:07:48;;;;;;;1.38;0.10;;;1.80;99.90;;;;;;5092958;28;20012;-76
2022/03/31 06:10:14;;;;;;;1.77;0.10;;;1.80;99.90;;;;;;5084139;28;20029;-76
2022/03/31 06:12:40;;;;;;;0.95;0.10;;;1.80;99.90;;;;;;5074796;28;20013;-78
2022/03/31 06:15:07;;;;;;;2.35;0.30;;;1.80;99.90;;;;;;5074738;28;20077;-78
2022/03/31 06:17:37;;;;;;;3.83;0.10;;;1.80;99.90;;;;;;5074733;28;20028;-77
2022/03/31 06:20:03;;;;;;;6.15;0.75;;;1.80;99.90;;;;;;5072486;28;20028;-77
2022/03/31 06:22:29;;;;;;;1.15;0.10;;;1.90;99.90;;;;;;5072514;28;20394;-77
2022/03/31 06:24:55;;;;;;;4.10;0.10;;;1.90;99.90;;;;;;5072684;28;20029;-77
2022/03/31 06:27:20;;;;;;;0.88;0.10;;;2.00;99.90;;;;;;5074243;28;20028;-77
2022/03/31 06:29:46;;;;;;;2.70;0.10;;;2.00;99.90;;;;;;5072611;28;20066;-77
2022/03/31 06:32:15;;;;;;;2.78;0.22;;;2.00;99.90;;;;;;5073688;28;20017;-76
2022/03/31 06:34:41;;;;;;;;;;;2.10;99.90;;;;;;5074402;28;20028;-76
2022/03/31 06:37:07;;;;;;;0.98;0.25;;;2.10;99.90;;;;;;5073684;28;20285;-77
2022/03/31 06:39:32;;;;;;;3.33;0.50;;;2.20;99.90;;;;;;5072469;28;20074;-76
2022/03/31 06:41:58;;;;;;;2.05;0.20;;;2.20;99.90;;;;;;5073563;28;20033;-76
2022/03/31 06:44:24;;;;;;;1.55;0.30;;;2.30;99.90;;;;;;5073714;28;20059;-76
2022/03/31 06:46:51;;;;;;;2.00;0.25;;;2.30;99.90;;;;;;5073815;28;20545;-77
2022/03/31 06:49:16;;;;;;;4.03;0.43;;;2.40;99.90;;;;;;5073640;28;20017;-75
2022/03/31 06:51:43;;;;;;;3.78;0.50;;;2.50;99.90;;;;;;5073930;28;20031;-74
2022/03/31 06:54:09;;;;;;;1.50;0.47;;;2.60;99.90;;;;;;5072086;28;20016;-76
2022/03/31 06:56:35;;;;;;;1.10;0.20;;;2.70;99.90;;;;;;5073350;28;20017;-76
2022/03/31 06:59:02;;;;;;;1.20;0.30;;;2.70;99.90;;;;;;5073631;28;20481;-75
2022/03/31 07:01:28;;;;;;;2.95;0.20;;;2.70;99.90;;;;;;5072201;28;20153;-75
2022/03/31 07:03:54;;;;;;;1.05;0.28;;;2.90;99.90;;;;;;5073677;28;20111;-75
2022/03/31 07:06:22;;;;;;;1.52;0.32;;;2.90;99.90;;;;;;5077413;28;20031;-75
2022/03/31 07:08:48;;;;;;;1.85;0.20;;;3.00;99.90;;;;;;5077707;28;20551;-75
2022/03/31 07:11:14;;;;;;;0.68;0.20;;;3.10;99.90;;;;;;5077508;28;20052;-76
2022/03/31 07:13:40;;;;;;;0.93;0.22;;;3.10;99.90;;;;;;5077348;28;20012;-76
2022/03/31 07:16:05;;;;;;;2.03;0.03;;;3.20;99.90;;;;;;5077517;28;20024;-75
2022/03/31 07:18:31;;;;;;;2.30;0.22;;;3.20;99.90;;;;;;5077141;28;20047;-75
2022/03/31 07:20:57;;;;;;;0.70;0.10;;;3.30;99.90;;;;;;5077167;28;20040;-75
2022/03/31 07:23:26;;;;;;;1.42;0.10;;;3.40;99.90;;;;;;5076179;28;20025;-75
2022/03/31 07:25:53;;;;;;;1.33;0.17;;;3.30;99.90;;;;;;5076643;28;20025;-75
2022/03/31 07:28:19;;;;;;;0.70;0.10;;;3.50;99.90;;;;;;5075823;28;20050;-75
2022/03/31 07:30:45;;;;;;;0.38;0.10;;;3.60;99.90;;;;;;5076867;28;20013;-75
2022/03/31 07:33:11;;;;;;;1.35;0.03;;;3.60;99.90;;;;;;5076840;28;20359;-75
2022/03/31 07:35:37;;;;;;;0.50;0.00;;;3.70;99.90;;;;;;5075649;28;20029;-75
2022/03/31 07:38:07;;;;;;;0.60;0.35;;;3.70;99.90;;;;;;5076960;28;20497;-75
2022/03/31 07:40:33;;;;;;;0.10;0.00;;;3.70;99.90;;;;;;5077035;28;20027;-75
2022/03/31 07:42:59;;;;;;;0.75;0.08;;;3.70;99.90;;;;;;5075494;28;20470;-75
2022/03/31 07:45:25;;;;;;;2.67;0.10;;;3.70;99.90;;;;;;5076845;28;20021;-75
2022/03/31 07:47:50;;;;;;;0.80;0.03;;;3.80;99.90;;;;;;5077104;28;20028;-75
2022/03/31 07:50:18;;;;;;;0.70;0.00;;;3.80;99.90;;;;;;5076550;28;20028;-76
2022/03/31 07:52:44;;;;;;;1.23;0.00;;;3.80;99.90;;;;;;5076568;28;20482;-76
2022/03/31 07:55:11;;;;;;;2.03;0.10;;;3.80;99.90;;;;;;5076797;28;20385;-75
2022/03/31 07:57:38;;;;;;;0.82;0.10;;;3.80;99.90;;;;;;5076848;28;20035;-75
2022/03/31 08:00:06;;;;;;;1.13;0.22;;;3.90;99.90;;;;;;5075131;28;20464;-75
2022/03/31 08:02:32;;;;;;;0.52;0.00;;;4.00;99.90;;;;;;5075302;28;20025;-75
2022/03/31 08:05:00;;;;;;;0.43;0.10;;;4.00;99.90;;;;;;5076140;28;20386;-75
2022/03/31 08:07:26;;;;;;;2.33;0.20;;;4.10;99.90;;;;;;5076255;28;20496;-75
2022/03/31 08:09:51;;;;;;;1.17;0.00;;;4.20;99.90;;;;;;5076642;28;20042;-75
2022/03/31 08:12:17;;;;;;;0.30;0.00;;;4.40;99.90;;;;;;5074848;28;20016;-75
2022/03/31 08:14:43;;;;;;;0.52;0.10;;;4.50;99.90;;;;;;5076244;28;20431;-75
2022/03/31 08:17:09;;;;;;;1.02;0.10;;;4.70;99.90;;;;;;5074769;28;20025;-75
2022/03/31 08:19:34;;;;;;;2.00;0.10;;;4.90;99.90;;;;;;5076017;28;20028;-76
2022/03/31 08:22:03;;;;;;;0.32;0.10;;;5.00;99.90;;;;;;5074519;28;20025;-76
2022/03/31 08:24:30;;;;;;;;;;;5.20;99.90;;;;;;5076265;28;20021;-76
2022/03/31 08:26:58;;;;;;;0.20;0.10;;;5.30;99.90;;;;;;5076168;28;20423;-76
2022/03/31 08:29:25;;;;;;;1.00;0.17;;;5.40;99.90;;;;;;5074455;28;20385;-76
2022/03/31 08:31:52;;;;;;;0.68;0.10;;;5.30;99.90;;;;;;5076320;28;20024;-76
2022/03/31 08:34:18;;;;;;;2.05;0.20;;;5.30;99.90;;;;;;5074384;28;20382;-75
2022/03/31 08:36:43;;;;;;;1.70;0.05;;;5.20;99.90;;;;;;5075618;28;20033;-76
2022/03/31 08:39:09;;;;;;;0.30;0.20;;;5.30;99.90;;;;;;5075876;28;20415;-76
2022/03/31 08:41:35;;;;;;;2.28;0.30;;;5.30;99.90;;;;;;5075509;28;20385;-76
2022/03/31 08:44:01;;;;;;;0.70;0.28;;;5.30;99.90;;;;;;5074267;28;20381;-75
2022/03/31 08:46:34;;;;;;;1.30;0.20;;;5.40;99.90;;;;;;5075670;28;20473;-74
2022/03/31 08:49:01;;;;;;;1.50;0.13;;;5.50;99.90;;;;;;5074270;28;20089;-73
2022/03/31 08:51:28;;;;;;;0.75;0.30;;;5.60;99.90;;;;;;5075566;28;20017;-74
2022/03/31 08:53:55;;;;;;;1.13;0.30;;;5.70;99.90;;;;;;5074040;28;20025;-73
2022/03/31 08:56:20;;;;;;;1.40;0.22;;;5.80;99.90;;;;;;5075272;28;20029;-73
2022/03/31 08:58:47;;;;;;;0.90;0.40;;;5.80;99.90;;;;;;5074257;28;20173;-73
2022/03/31 09:01:16;;;;;;;0.60;0.30;;;5.70;99.90;;;;;;5075113;28;20553;-73
2022/03/31 09:03:43;;;;;;;1.83;0.20;;;5.70;99.90;;;;;;5075494;28;20103;-74
2022/03/31 09:06:19;;;;;;;1.00;0.60;;;5.70;99.90;;;;;;5075080;28;20031;-73
2022/03/31 09:08:56;;;;;;;1.00;0.30;;;5.70;99.90;;;;;;5075352;28;20020;-74
2022/03/31 09:11:30;;;;;;;1.63;0.85;;;5.60;99.90;;;;;;5075281;28;20027;-77
2022/03/31 09:14:04;;;;;;;1.13;0.40;;;5.70;99.90;;;;;;5073805;28;20490;-77
2022/03/31 09:16:36;;;;;;;2.35;0.75;;;5.60;99.90;;;;;;5073708;28;20393;-74
2022/03/31 09:19:09;;;;;;;1.70;0.73;;;5.50;99.90;;;;;;5073831;28;20028;-76
2022/03/31 09:21:57;;;;;;;1.70;0.50;;;5.50;99.90;;;;;;5073595;28;20028;-77
2022/03/31 09:24:28;;;;;;;1.08;0.40;;;5.60;99.90;;;;;;5073910;28;20036;-77
2022/03/31 09:26:56;;;;;;;3.03;0.95;;;5.60;99.90;;;;;;5073326;28;20449;-77
2022/03/31 09:29:26;;;;;;;1.65;0.70;;;5.60;99.90;;;;;;5075079;28;20074;-77
2022/03/31 09:31:53;;;;;;;1.52;0.80;;;5.70;99.90;;;;;;5075824;28;20017;-76
2022/03/31 09:34:19;;;;;;;1.13;0.50;;;5.70;99.90;;;;;;5074754;28;20032;-76
2022/03/31 09:36:52;;;;;;;1.63;1.23;;;5.70;99.90;;;;;;5074914;28;20029;-76
2022/03/31 09:39:20;;;;;;;1.65;1.10;;;5.80;99.90;;;;;;5075046;28;20113;-76
2022/03/31 09:41:48;;;;;;;1.87;0.93;;;5.80;99.90;;;;;;5074713;28;20428;-76
2022/03/31 09:44:16;;;;;;;1.73;1.10;;;5.90;99.90;;;;;;5074447;28;20105;-74
2022/03/31 09:46:44;;;;;;;1.13;0.60;;;5.90;99.90;;;;;;5074508;28;20016;-77
2022/03/31 09:49:14;;;;;;;2.50;0.82;;;6.00;99.90;;;;;;5072929;28;20013;-76
2022/03/31 09:51:45;;;;;;;2.50;1.00;;;6.10;99.90;;;;;;5072923;28;20054;-77
2022/03/31 09:54:12;;;;;;;2.30;1.13;;;6.20;99.90;;;;;;5074218;28;20017;-77
2022/03/31 09:56:41;;;;;;;3.83;1.65;;;6.40;99.90;;;;;;5074561;28;20063;-77
2022/03/31 09:59:09;;;;;;;2.45;1.08;;;6.50;99.90;;;;;;5072825;28;20402;-75
2022/03/31 10:01:38;;;;;;;3.78;1.08;;;6.40;99.90;;;;;;5072947;28;20111;-76
2022/03/31 10:04:09;;;;;;;4.68;1.10;;;6.60;99.90;;;;;;5072737;28;20397;-76
2022/03/31 10:06:36;;;;;;;2.28;1.10;;;6.60;99.90;;;;;;5072528;28;20031;-75
2022/03/31 10:09:04;;;;;;;2.90;1.33;;;6.60;99.90;;;;;;5074225;28;20016;-75
2022/03/31 10:11:33;;;;;;;4.15;1.20;;;6.60;99.90;;;;;;5072643;28;20020;-75
2022/03/31 10:14:05;;;;;;;;;;;6.60;99.90;;;;;;5073137;28;20023;-75
2022/03/31 10:16:44;;;;;;;3.47;1.65;;;6.70;99.90;;;;;;5073861;28;19904;-77
2022/03/31 10:19:10;;;;;;;4.28;1.45;;;6.80;99.90;;;;;;5073784;28;20052;-75
2022/03/31 10:21:36;;;;;;;2.83;1.48;;;6.90;99.90;;;;;;5072467;28;20068;-76
2022/03/31 10:27:01;;;;;;;2.85;1.20;;;6.90;99.90;;;;;;5074289;28;20044;-74
2022/03/31 10:29:43;;;;;;;4.00;1.98;;;7.00;99.90;;;;;;5073426;28;20039;-74
2022/03/31 10:32:35;;;;;;;10.55;4.05;;;7.00;99.90;;;;;;5074566;28;20074;-74
2022/03/31 10:35:01;;;;;;;3.50;1.60;;;7.10;99.90;;;;;;5071111;28;20041;-75
2022/03/31 10:37:32;;;;;;;10.60;3.50;;;7.20;99.90;;;;;;5073513;28;20020;-74
2022/03/31 10:39:58;;;;;;;5.50;1.77;;;7.20;99.90;;;;;;5073064;28;20381;-74
2022/03/31 10:42:24;;;;;;;7.60;2.08;;;7.20;99.90;;;;;;5073810;28;20035;-76
2022/03/31 10:45:09;;;;;;;3.53;1.85;;;7.10;99.90;;;;;;5073459;28;20157;-75
2022/03/31 10:47:36;;;;;;;4.55;1.75;;;6.90;99.90;;;;;;5073672;28;20025;-75
2022/03/31 10:50:02;;;;;;;5.35;2.40;;;6.80;99.90;;;;;;5073655;28;20020;-72
2022/03/31 10:52:28;;;;;;;5.40;2.22;;;6.90;99.90;;;;;;5073381;28;20087;-76
2022/03/31 10:55:18;;;;;;;5.15;2.10;;;7.00;99.90;;;;;;5073286;28;20112;-75
2022/03/31 10:57:45;;;;;;;4.35;2.08;;;7.10;99.90;;;;;;5073209;28;20035;-75
2022/03/31 11:00:14;;;;;;;6.10;2.60;;;7.30;99.90;;;;;;5074200;28;20107;-75
2022/03/31 11:02:45;;;;;;;5.68;1.83;;;7.30;99.90;;;;;;5071929;28;20485;-75
2022/03/31 11:05:12;;;;;;;5.30;2.13;;;7.30;99.90;;;;;;5072349;28;20058;-76
2022/03/31 11:07:38;;;;;;;6.78;2.05;;;7.30;99.90;;;;;;5072326;28;20028;-75
2022/03/31 11:10:12;;;;;;;4.57;2.10;;;7.30;99.90;;;;;;5073871;28;20024;-75
2022/03/31 11:12:39;;;;;;;9.32;3.72;;;7.30;99.90;;;;;;5073516;28;20386;-75
2022/03/31 11:15:07;;;;;;;6.93;2.83;;;7.30;99.90;;;;;;5073136;28;20474;-75
2022/03/31 11:17:34;;;;;;;5.97;3.10;;;7.30;99.90;;;;;;5071855;28;20024;-75
2022/03/31 11:20:03;;;;;;;4.97;2.53;;;7.30;99.90;;;;;;5071768;28;20363;-75
2022/03/31 11:22:30;;;;;;;3.45;2.28;;;7.40;99.90;;;;;;5073022;28;20021;-75
2022/03/31 11:25:09;;;;;;;5.25;2.10;;;7.50;99.90;;;;;;5071547;28;20021;-75
2022/03/31 11:27:37;;;;;;;4.38;2.10;;;7.70;99.90;;;;;;5073134;28;20032;-73
2022/03/31 11:30:11;;;;;;;3.78;2.00;;;7.80;99.90;;;;;;5073366;28;20021;-73
2022/03/31 11:32:38;;;;;;;4.70;2.58;;;7.80;99.90;;;;;;5071906;28;20029;-73
2022/03/31 11:35:10;;;;;;;4.28;1.85;;;7.70;99.90;;;;;;5073330;28;20478;-73
2022/03/31 11:37:43;;;;;;;6.00;2.53;;;7.70;99.90;;;;;;5073343;28;20108;-73
2022/03/31 11:40:21;;;;;;;4.40;1.90;;;7.60;99.90;;;;;;5071752;28;20523;-73
2022/03/31 11:42:48;;;;;;;6.05;1.90;;;7.60;99.90;;;;;;5073489;28;20028;-71
2022/03/31 11:45:24;;;;;;;2.08;1.05;;;7.60;99.90;;;;;;5072729;28;20124;-71
2022/03/31 11:47:57;;;;;;;3.65;1.13;;;7.50;99.90;;;;;;5073121;28;20476;-71
2022/03/31 11:50:23;;;;;;;2.67;1.27;;;7.30;99.90;;;;;;5074002;28;20100;-71
2022/03/31 11:52:49;;;;;;;3.40;1.00;;;7.10;99.90;;;;;;5076564;28;20024;-71
2022/03/31 11:55:14;;;;;;;3.22;1.30;;;6.90;99.90;;;;;;5076540;28;20024;-71
2022/03/31 11:57:53;;;;;;;2.15;1.10;;;6.60;99.90;;;;;;5076801;28;20131;-71
2022/03/31 12:00:19;;;;;;;2.60;0.80;;;6.40;99.90;;;;;;5076692;28;20385;-71
2022/03/31 12:03:00;;;;;;;2.17;0.65;;;6.30;99.90;;;;;;5075093;28;20035;-71
2022/03/31 12:05:26;;;;;;;2.17;0.70;;;6.30;99.90;;;;;;5076499;28;20029;-72
2022/03/31 12:07:52;;;;;;;3.10;1.20;;;6.30;99.90;;;;;;5076401;28;20023;-71
2022/03/31 12:10:18;;;;;;;2.63;0.75;;;6.30;99.90;;;;;;5075347;28;20492;-71
2022/03/31 12:12:49;;;;;;;0.82;0.40;;;6.20;99.90;;;;;;5074902;28;20128;-72
2022/03/31 12:15:26;;;;;;;1.25;0.50;;;6.20;99.90;;;;;;5076075;28;20039;-72
2022/03/31 12:17:56;;;;;;;1.00;0.68;;;6.70;99.90;;;;;;5076047;28;20020;-72
2022/03/31 12:20:22;;;;;;;0.75;0.52;;;6.10;99.90;;;;;;5076388;28;20104;-76
2022/03/31 12:22:48;;;;;;;1.08;0.65;;;6.10;99.90;;;;;;5074782;28;20038;-74
2022/03/31 12:25:24;;;;;;;0.32;0.10;;;6.00;99.90;;;;;;5075969;28;20037;-73
2022/03/31 12:27:50;;;;;;;0.30;0.10;;;6.00;99.90;;;;;;5076025;28;20469;-73
2022/03/31 12:30:15;;;;;;;0.45;0.10;;;6.00;99.90;;;;;;5075967;28;20027;-72
2022/03/31 12:32:48;;;;;;;0.77;0.38;;;5.90;99.90;;;;;;5076187;28;20024;-72
2022/03/31 12:35:14;;;;;;;0.70;0.20;;;5.90;99.90;;;;;;5075977;28;20037;-72
2022/03/31 12:37:47;;;;;;;0.60;0.20;;;5.80;99.90;;;;;;5075732;28;20073;-74
2022/03/31 12:40:15;;;;;;;0.75;0.20;;;5.70;99.90;;;;;;5075838;28;20052;-72
2022/03/31 12:43:10;;;;;;;0.17;0.10;;;5.60;99.90;;;;;;5075609;28;20055;-73
2022/03/31 12:45:36;;;;;;;3.00;0.40;;;5.50;99.90;;;;;;5070948;28;20286;-73
2022/03/31 12:48:09;;;;;;;0.20;0.10;;;5.50;99.90;;;;;;5075488;28;20504;-72
2022/03/31 12:50:38;;;;;;;0.70;0.10;;;5.40;99.90;;;;;;5075383;28;20017;-72
2022/03/31 12:53:04;;;;;;;0.32;0.00;;;5.40;99.90;;;;;;5075554;28;20470;-72
2022/03/31 12:55:33;;;;;;;0.73;0.10;;;5.50;99.90;;;;;;5075380;28;20032;-72
2022/03/31 12:58:00;;;;;;;0.32;0.03;;;5.40;99.90;;;;;;5075681;28;20028;-74
2022/03/31 13:00:26;;;;;;;0.17;0.10;;;5.40;99.90;;;;;;5074080;28;20029;-74
2022/03/31 13:02:52;;;;;;;0.50;0.13;;;5.40;99.90;;;;;;5074627;28;20028;-71
2022/03/31 13:05:26;;;;;;;0.10;0.10;;;5.50;99.90;;;;;;5075236;28;20029;-71